sensor_id;sensor_type;location;lat;lon;timestamp;pressure;altitude;pressure_sealevel;temperature;humidity
65832;BME280;52593;42.648;23.332;2023-11-21T00:01:57;94370.56;;;3.13;94.19
65832;BME280;52593;42.648;23.332;2023-11-21T00:04:23;94371.22;;;3.25;93.51
65832;BME280;52593;42.648;23.332;2023-11-21T00:06:48;94366.00;;;3.05;93.67
65832;BME280;52593;42.648;23.332;2023-11-21T00:09:14;94376.97;;;3.10;94.55
65832;BME280;52593;42.648;23.332;2023-11-21T00:11:45;94364.59;;;3.01;94.00
65832;BME280;52593;42.648;23.332;2023-11-21T00:14:13;94378.22;;;3.16;94.64
65832;BME280;52593;42.648;23.332;2023-11-21T00:16:40;94378.06;;;3.08;93.85
65832;BME280;52593;42.648;23.332;2023-11-21T00:19:06;94379.50;;;2.92;95.09
65832;BME280;52593;42.648;23.332;2023-11-21T00:21:31;94381.00;;;3.04;95.56
65832;BME280;52593;42.648;23.332;2023-11-21T00:23:57;94366.56;;;2.99;95.55
65832;BME280;52593;42.648;23.332;2023-11-21T00:26:22;94367.78;;;3.04;95.92
65832;BME280;52593;42.648;23.332;2023-11-21T00:28:49;94371.81;;;3.09;96.24
65832;BME280;52593;42.648;23.332;2023-11-21T00:31:15;94357.88;;;3.16;95.87
65832;BME280;52593;42.648;23.332;2023-11-21T00:33:41;94363.41;;;3.33;95.22
65832;BME280;52593;42.648;23.332;2023-11-21T00:36:07;94361.63;;;3.24;95.01
65832;BME280;52593;42.648;23.332;2023-11-21T00:38:35;94359.38;;;3.38;94.93
65832;BME280;52593;42.648;23.332;2023-11-21T00:41:01;94360.88;;;3.41;94.06
65832;BME280;52593;42.648;23.332;2023-11-21T00:43:26;94368.97;;;3.39;94.29
65832;BME280;52593;42.648;23.332;2023-11-21T00:45:52;94363.22;;;3.44;93.67
65832;BME280;52593;42.648;23.332;2023-11-21T00:48:17;94367.88;;;3.22;94.70
65832;BME280;52593;42.648;23.332;2023-11-21T00:50:45;94370.16;;;3.17;95.49
65832;BME280;52593;42.648;23.332;2023-11-21T00:53:11;94363.03;;;3.18;96.28
65832;BME280;52593;42.648;23.332;2023-11-21T00:55:37;94376.34;;;3.36;95.54
65832;BME280;52593;42.648;23.332;2023-11-21T00:58:05;94362.22;;;3.17;95.00
65832;BME280;52593;42.648;23.332;2023-11-21T01:00:33;94363.31;;;3.15;95.35
65832;BME280;52593;42.648;23.332;2023-11-21T01:02:59;94362.06;;;3.09;96.10
65832;BME280;52593;42.648;23.332;2023-11-21T01:05:24;94348.16;;;3.07;95.64
65832;BME280;52593;42.648;23.332;2023-11-21T01:07:50;94357.78;;;2.98;96.27
65832;BME280;52593;42.648;23.332;2023-11-21T01:10:15;94360.72;;;2.95;96.23
65832;BME280;52593;42.648;23.332;2023-11-21T01:12:42;94352.91;;;3.03;96.33
65832;BME280;52593;42.648;23.332;2023-11-21T01:15:08;94350.81;;;3.07;95.53
65832;BME280;52593;42.648;23.332;2023-11-21T01:17:34;94353.19;;;2.91;96.17
65832;BME280;52593;42.648;23.332;2023-11-21T01:20:00;94357.09;;;2.96;96.08
65832;BME280;52593;42.648;23.332;2023-11-21T01:22:26;94352.69;;;2.77;97.00
65832;BME280;52593;42.648;23.332;2023-11-21T01:24:54;94365.03;;;2.96;96.69
65832;BME280;52593;42.648;23.332;2023-11-21T01:27:20;94363.78;;;2.91;96.09
65832;BME280;52593;42.648;23.332;2023-11-21T01:29:45;94358.50;;;2.91;96.04
65832;BME280;52593;42.648;23.332;2023-11-21T01:32:11;94361.56;;;2.96;95.92
65832;BME280;52593;42.648;23.332;2023-11-21T01:34:36;94347.13;;;2.80;95.96
65832;BME280;52593;42.648;23.332;2023-11-21T01:37:02;94349.06;;;2.78;96.18
65832;BME280;52593;42.648;23.332;2023-11-21T01:39:30;94355.75;;;2.73;96.11
65832;BME280;52593;42.648;23.332;2023-11-21T01:41:55;94355.75;;;2.73;96.36
65832;BME280;52593;42.648;23.332;2023-11-21T01:44:24;94355.75;;;2.63;96.92
65832;BME280;52593;42.648;23.332;2023-11-21T01:46:50;94355.31;;;2.67;96.74
65832;BME280;52593;42.648;23.332;2023-11-21T01:49:16;94355.31;;;2.67;96.67
65832;BME280;52593;42.648;23.332;2023-11-21T01:51:44;94351.41;;;2.62;96.54
65832;BME280;52593;42.648;23.332;2023-11-21T01:54:12;94336.69;;;2.69;96.24
65832;BME280;52593;42.648;23.332;2023-11-21T01:56:38;94328.50;;;2.62;96.54
65832;BME280;52593;42.648;23.332;2023-11-21T01:59:04;94339.06;;;2.62;96.29
65832;BME280;52593;42.648;23.332;2023-11-21T02:01:33;94351.56;;;2.60;96.54
65832;BME280;52593;42.648;23.332;2023-11-21T02:03:58;94352.81;;;2.66;96.40
65832;BME280;52593;42.648;23.332;2023-11-21T02:06:24;94345.19;;;2.63;96.03
65832;BME280;52593;42.648;23.332;2023-11-21T02:08:49;94350.59;;;2.42;96.94
65832;BME280;52593;42.648;23.332;2023-11-21T02:11:15;94353.09;;;2.63;96.78
65832;BME280;52593;42.648;23.332;2023-11-21T02:13:41;94352.81;;;2.66;95.65
65832;BME280;52593;42.648;23.332;2023-11-21T02:16:11;94360.47;;;2.49;95.94
65832;BME280;52593;42.648;23.332;2023-11-21T02:18:39;94346.56;;;2.57;96.27
65832;BME280;52593;42.648;23.332;2023-11-21T02:21:05;94342.53;;;2.43;95.49
65832;BME280;52593;42.648;23.332;2023-11-21T02:23:30;94344.50;;;2.41;96.40
65832;BME280;52593;42.648;23.332;2023-11-21T02:25:56;94344.09;;;2.36;97.30
65832;BME280;52593;42.648;23.332;2023-11-21T02:28:21;94342.97;;;2.48;96.75
65832;BME280;52593;42.648;23.332;2023-11-21T02:30:51;94346.00;;;2.24;97.38
65832;BME280;52593;42.648;23.332;2023-11-21T02:33:21;94346.84;;;2.44;97.70
65832;BME280;52593;42.648;23.332;2023-11-21T02:35:46;94340.59;;;2.45;97.59
65832;BME280;52593;42.648;23.332;2023-11-21T02:38:12;94346.84;;;2.25;98.09
65832;BME280;52593;42.648;23.332;2023-11-21T02:40:37;94344.63;;;2.20;98.47
65832;BME280;52593;42.648;23.332;2023-11-21T02:43:02;94336.56;;;2.22;98.54
65832;BME280;52593;42.648;23.332;2023-11-21T02:45:31;94340.31;;;2.39;98.36
65832;BME280;52593;42.648;23.332;2023-11-21T02:47:57;94341.13;;;2.29;97.86
65832;BME280;52593;42.648;23.332;2023-11-21T02:50:22;94347.81;;;2.43;97.82
65832;BME280;52593;42.648;23.332;2023-11-21T02:52:48;94339.34;;;2.40;97.68
65832;BME280;52593;42.648;23.332;2023-11-21T02:55:14;94340.31;;;2.39;97.71
65832;BME280;52593;42.648;23.332;2023-11-21T02:57:39;94334.19;;;2.48;97.02
65832;BME280;52593;42.648;23.332;2023-11-21T03:00:05;94343.09;;;2.37;96.73
65832;BME280;52593;42.648;23.332;2023-11-21T03:02:33;94334.50;;;2.25;97.53
65832;BME280;52593;42.648;23.332;2023-11-21T03:04:58;94328.78;;;2.30;97.60
65832;BME280;52593;42.648;23.332;2023-11-21T03:07:24;94329.34;;;2.24;98.42
65832;BME280;52593;42.648;23.332;2023-11-21T03:09:50;94332.94;;;2.23;99.10
65832;BME280;52593;42.648;23.332;2023-11-21T03:12:15;94335.31;;;2.36;98.94
65832;BME280;52593;42.648;23.332;2023-11-21T03:14:41;94340.59;;;2.45;97.36
65832;BME280;52593;42.648;23.332;2023-11-21T03:17:06;94335.88;;;2.49;97.08
65832;BME280;52593;42.648;23.332;2023-11-21T03:19:32;94325.16;;;2.50;95.37
65832;BME280;52593;42.648;23.332;2023-11-21T03:21:57;94342.97;;;2.29;96.46
65832;BME280;52593;42.648;23.332;2023-11-21T03:24:23;94353.66;;;2.18;97.69
65832;BME280;52593;42.648;23.332;2023-11-21T03:26:49;94350.34;;;2.25;97.83
65832;BME280;52593;42.648;23.332;2023-11-21T03:29:15;94352.28;;;2.33;97.64
65832;BME280;52593;42.648;23.332;2023-11-21T03:31:40;94353.25;;;2.32;97.60
65832;BME280;52593;42.648;23.332;2023-11-21T03:34:06;94356.72;;;2.23;97.54
65832;BME280;52593;42.648;23.332;2023-11-21T03:36:32;94354.34;;;2.20;98.46
65832;BME280;52593;42.648;23.332;2023-11-21T03:38:57;94352.69;;;2.28;98.96
65832;BME280;52593;42.648;23.332;2023-11-21T03:41:22;94347.56;;;2.27;98.88
65832;BME280;52593;42.648;23.332;2023-11-21T03:43:48;94347.56;;;2.27;98.80
65832;BME280;52593;42.648;23.332;2023-11-21T03:46:13;94344.38;;;2.33;98.80
65832;BME280;52593;42.648;23.332;2023-11-21T03:48:39;94326.69;;;2.34;98.32
65832;BME280;52593;42.648;23.332;2023-11-21T03:51:05;94331.56;;;2.28;97.83
65832;BME280;52593;42.648;23.332;2023-11-21T03:53:30;94331.56;;;2.38;98.24
65832;BME280;52593;42.648;23.332;2023-11-21T03:55:56;94321.28;;;2.35;98.26
65832;BME280;52593;42.648;23.332;2023-11-21T03:58:21;94317.66;;;2.46;96.89
65832;BME280;52593;42.648;23.332;2023-11-21T04:00:47;94331.00;;;2.44;97.03
65832;BME280;52593;42.648;23.332;2023-11-21T04:03:16;94320.72;;;2.41;97.90
65832;BME280;52593;42.648;23.332;2023-11-21T04:05:41;94316.41;;;2.50;96.86
65832;BME280;52593;42.648;23.332;2023-11-21T04:08:06;94318.22;;;2.40;97.43
65832;BME280;52593;42.648;23.332;2023-11-21T04:10:32;94313.63;;;2.52;97.69
65832;BME280;52593;42.648;23.332;2023-11-21T04:12:58;94312.69;;;2.33;97.86
65832;BME280;52593;42.648;23.332;2023-11-21T04:15:23;94317.09;;;2.32;98.60
65832;BME280;52593;42.648;23.332;2023-11-21T04:17:49;94308.91;;;2.26;99.03
65832;BME280;52593;42.648;23.332;2023-11-21T04:20:14;94314.88;;;2.18;99.28
65832;BME280;52593;42.648;23.332;2023-11-21T04:22:40;94314.63;;;2.11;100.00
65832;BME280;52593;42.648;23.332;2023-11-21T04:25:08;94314.47;;;2.23;100.00
65832;BME280;52593;42.648;23.332;2023-11-21T04:27:34;94308.78;;;2.18;100.00
65832;BME280;52593;42.648;23.332;2023-11-21T04:30:00;94313.06;;;2.19;100.00
65832;BME280;52593;42.648;23.332;2023-11-21T04:32:25;94318.09;;;2.31;99.62
65832;BME280;52593;42.648;23.332;2023-11-21T04:34:51;94313.09;;;2.28;99.02
65832;BME280;52593;42.648;23.332;2023-11-21T04:37:16;94313.63;;;2.32;98.47
65832;BME280;52593;42.648;23.332;2023-11-21T04:39:42;94307.53;;;2.31;98.66
65832;BME280;52593;42.648;23.332;2023-11-21T04:42:07;94306.41;;;2.44;98.45
65832;BME280;52593;42.648;23.332;2023-11-21T04:44:32;94308.34;;;2.42;98.53
65832;BME280;52593;42.648;23.332;2023-11-21T04:46:58;94322.81;;;2.47;98.03
65832;BME280;52593;42.648;23.332;2023-11-21T04:49:23;94316.41;;;2.40;97.38
65832;BME280;52593;42.648;23.332;2023-11-21T04:51:49;94314.75;;;2.49;97.11
65832;BME280;52593;42.648;23.332;2023-11-21T04:54:14;94313.47;;;2.43;96.79
65832;BME280;52593;42.648;23.332;2023-11-21T04:56:39;94320.72;;;2.31;96.99
65832;BME280;52593;42.648;23.332;2023-11-21T04:59:05;94329.34;;;2.24;97.74
65832;BME280;52593;42.648;23.332;2023-11-21T05:01:30;94312.78;;;2.22;98.42
65832;BME280;52593;42.648;23.332;2023-11-21T05:03:56;94324.88;;;2.34;97.88
65832;BME280;52593;42.648;23.332;2023-11-21T05:06:22;94329.19;;;2.35;97.53
65832;BME280;52593;42.648;23.332;2023-11-21T05:08:49;94341.00;;;2.31;nan
65832;BME280;52593;42.648;23.332;2023-11-21T05:11:24;94326.00;;;2.22;97.82
65832;BME280;52593;42.648;23.332;2023-11-21T05:13:49;94313.34;;;2.06;98.63
65832;BME280;52593;42.648;23.332;2023-11-21T05:16:17;94309.47;;;2.20;99.11
65832;BME280;52593;42.648;23.332;2023-11-21T05:18:42;94308.50;;;2.21;99.16
65832;BME280;52593;42.648;23.332;2023-11-21T05:21:08;94318.50;;;2.37;99.01
65832;BME280;52593;42.648;23.332;2023-11-21T05:23:34;94309.59;;;2.28;99.28
65832;BME280;52593;42.648;23.332;2023-11-21T05:26:00;94316.84;;;2.45;99.25
65832;BME280;52593;42.648;23.332;2023-11-21T05:28:25;94307.94;;;2.27;98.66
65832;BME280;52593;42.648;23.332;2023-11-21T05:30:51;94318.06;;;2.22;99.15
65832;BME280;52593;42.648;23.332;2023-11-21T05:33:16;94321.28;;;2.25;99.08
65832;BME280;52593;42.648;23.332;2023-11-21T05:35:42;94331.84;;;2.25;99.75
65832;BME280;52593;42.648;23.332;2023-11-21T05:38:07;94325.88;;;2.33;99.24
65832;BME280;52593;42.648;23.332;2023-11-21T05:40:33;94328.50;;;2.43;98.98
65832;BME280;52593;42.648;23.332;2023-11-21T05:42:58;94319.19;;;2.48;98.57
65832;BME280;52593;42.648;23.332;2023-11-21T05:45:24;94335.59;;;2.32;98.93
65832;BME280;52593;42.648;23.332;2023-11-21T05:47:49;94339.09;;;2.33;99.86
65832;BME280;52593;42.648;23.332;2023-11-21T05:50:16;94331.84;;;2.35;100.00
65832;BME280;52593;42.648;23.332;2023-11-21T05:52:44;94335.19;;;2.47;99.53
65832;BME280;52593;42.648;23.332;2023-11-21T05:55:09;94324.59;;;2.57;98.83
65832;BME280;52593;42.648;23.332;2023-11-21T05:57:39;94320.97;;;2.67;98.24
65832;BME280;52593;42.648;23.332;2023-11-21T06:00:06;94319.88;;;2.60;97.77
65832;BME280;52593;42.648;23.332;2023-11-21T06:02:51;94325.56;;;2.65;97.79
65832;BME280;52593;42.648;23.332;2023-11-21T06:05:19;94327.38;;;2.55;97.88
65832;BME280;52593;42.648;23.332;2023-11-21T06:07:45;94324.06;;;2.53;98.31
65832;BME280;52593;42.648;23.332;2023-11-21T06:10:11;94332.53;;;2.47;98.74
65832;BME280;52593;42.648;23.332;2023-11-21T06:12:39;94324.91;;;2.63;98.82
65832;BME280;52593;42.648;23.332;2023-11-21T06:15:08;94327.94;;;2.59;98.72
65832;BME280;52593;42.648;23.332;2023-11-21T06:17:37;94334.34;;;2.76;98.24
65832;BME280;52593;42.648;23.332;2023-11-21T06:20:04;94344.34;;;2.72;97.72
65832;BME280;52593;42.648;23.332;2023-11-21T06:22:43;94345.75;;;2.66;98.01
65832;BME280;52593;42.648;23.332;2023-11-21T06:25:10;94336.97;;;2.66;98.41
65832;BME280;52593;42.648;23.332;2023-11-21T06:27:39;94340.72;;;2.73;97.85
65832;BME280;52593;42.648;23.332;2023-11-21T06:30:06;94337.09;;;2.84;97.69
65832;BME280;52593;42.648;23.332;2023-11-21T06:32:32;94344.03;;;2.95;96.66
65832;BME280;52593;42.648;23.332;2023-11-21T06:34:58;94345.56;;;2.88;97.19
65832;BME280;52593;42.648;23.332;2023-11-21T06:37:28;94351.28;;;2.93;97.57
65832;BME280;52593;42.648;23.332;2023-11-21T06:39:54;94351.28;;;2.93;97.42
65832;BME280;52593;42.648;23.332;2023-11-21T06:42:20;94362.78;;;3.01;97.15
65832;BME280;52593;42.648;23.332;2023-11-21T06:44:46;94357.78;;;2.98;97.11
65832;BME280;52593;42.648;23.332;2023-11-21T06:47:12;94351.22;;;3.12;94.89
65832;BME280;52593;42.648;23.332;2023-11-21T06:49:37;94360.97;;;3.12;94.73
65832;BME280;52593;42.648;23.332;2023-11-21T06:52:06;94366.41;;;3.00;95.75
65832;BME280;52593;42.648;23.332;2023-11-21T06:54:33;94359.19;;;3.02;94.62
65832;BME280;52593;42.648;23.332;2023-11-21T06:56:59;94362.50;;;3.04;94.25
65832;BME280;52593;42.648;23.332;2023-11-21T06:59:25;94364.78;;;2.90;95.36
65832;BME280;52593;42.648;23.332;2023-11-21T07:01:51;94352.78;;;3.05;95.05
65832;BME280;52593;42.648;23.332;2023-11-21T07:04:16;94366.25;;;3.12;95.30
65832;BME280;52593;42.648;23.332;2023-11-21T07:06:43;94371.41;;;3.13;94.00
65832;BME280;52593;42.648;23.332;2023-11-21T07:09:09;94358.03;;;3.15;94.55
65832;BME280;52593;42.648;23.332;2023-11-21T07:11:37;94350.91;;;3.25;93.61
65832;BME280;52593;42.648;23.332;2023-11-21T07:14:03;94350.09;;;3.15;93.87
65832;BME280;52593;42.648;23.332;2023-11-21T07:16:36;94335.72;;;3.37;94.27
65832;BME280;52593;42.648;23.332;2023-11-21T07:19:06;94339.84;;;3.39;93.89
65832;BME280;52593;42.648;23.332;2023-11-21T07:21:36;94349.63;;;3.39;92.99
65832;BME280;52593;42.648;23.332;2023-11-21T07:24:02;94348.44;;;3.51;92.28
65832;BME280;52593;42.648;23.332;2023-11-21T07:26:28;94356.94;;;3.55;92.05
65832;BME280;52593;42.648;23.332;2023-11-21T07:28:54;94344.44;;;3.75;91.87
65832;BME280;52593;42.648;23.332;2023-11-21T07:31:20;94347.50;;;3.80;91.53
65832;BME280;52593;42.648;23.332;2023-11-21T07:33:46;94355.03;;;3.75;91.76
65832;BME280;52593;42.648;23.332;2023-11-21T07:36:15;94346.13;;;3.76;92.22
65832;BME280;52593;42.648;23.332;2023-11-21T07:38:44;94356.53;;;4.05;90.71
65832;BME280;52593;42.648;23.332;2023-11-21T07:41:10;94355.13;;;4.11;89.66
65832;BME280;52593;42.648;23.332;2023-11-21T07:43:36;94352.03;;;4.16;89.84
65832;BME280;52593;42.648;23.332;2023-11-21T07:46:02;94363.88;;;4.11;89.89
65832;BME280;52593;42.648;23.332;2023-11-21T07:48:32;94362.31;;;4.19;90.49
65832;BME280;52593;42.648;23.332;2023-11-21T07:50:58;94354.97;;;4.13;91.18
65832;BME280;52593;42.648;23.332;2023-11-21T07:53:24;94344.59;;;4.19;90.76
65832;BME280;52593;42.648;23.332;2023-11-21T07:55:52;94356.56;;;4.23;91.18
65832;BME280;52593;42.648;23.332;2023-11-21T07:58:17;94342.81;;;4.38;90.02
65832;BME280;52593;42.648;23.332;2023-11-21T08:00:43;94339.78;;;4.33;90.18
65832;BME280;52593;42.648;23.332;2023-11-21T08:03:09;94332.28;;;4.28;90.34
65832;BME280;52593;42.648;23.332;2023-11-21T08:05:35;94330.47;;;4.46;89.32
65832;BME280;52593;42.648;23.332;2023-11-21T08:08:00;94331.53;;;4.54;88.77
65832;BME280;52593;42.648;23.332;2023-11-21T08:10:26;94336.09;;;4.61;88.50
65832;BME280;52593;42.648;23.332;2023-11-21T08:12:51;94334.34;;;4.52;88.50
65832;BME280;52593;42.648;23.332;2023-11-21T08:15:17;94329.25;;;4.59;89.32
65832;BME280;52593;42.648;23.332;2023-11-21T08:17:43;94314.13;;;4.69;87.34
65832;BME280;52593;42.648;23.332;2023-11-21T08:20:09;94336.69;;;4.55;88.39
65832;BME280;52593;42.648;23.332;2023-11-21T08:22:36;94329.72;;;4.72;89.17
65832;BME280;52593;42.648;23.332;2023-11-21T08:25:02;94326.34;;;4.88;89.24
65832;BME280;52593;42.648;23.332;2023-11-21T08:27:29;94320.38;;;4.86;88.31
65832;BME280;52593;42.648;23.332;2023-11-21T08:29:55;94330.56;;;4.99;87.45
65832;BME280;52593;42.648;23.332;2023-11-21T08:32:21;94338.31;;;4.92;86.86
65832;BME280;52593;42.648;23.332;2023-11-21T08:34:47;94330.84;;;5.14;87.13
65832;BME280;52593;42.648;23.332;2023-11-21T08:37:16;94317.38;;;5.33;86.84
65832;BME280;52593;42.648;23.332;2023-11-21T08:39:43;94313.63;;;5.44;85.59
65832;BME280;52593;42.648;23.332;2023-11-21T08:42:08;94321.25;;;5.47;85.29
65832;BME280;52593;42.648;23.332;2023-11-21T08:44:34;94314.53;;;5.69;84.90
65832;BME280;52593;42.648;23.332;2023-11-21T08:46:59;94314.13;;;5.82;83.76
65832;BME280;52593;42.648;23.332;2023-11-21T08:49:25;94312.25;;;5.75;84.05
65832;BME280;52593;42.648;23.332;2023-11-21T08:51:53;94308.13;;;5.80;83.75
65832;BME280;52593;42.648;23.332;2023-11-21T08:54:20;94307.28;;;5.80;83.10
65832;BME280;52593;42.648;23.332;2023-11-21T08:56:46;94308.59;;;5.76;83.59
65832;BME280;52593;42.648;23.332;2023-11-21T08:59:11;94305.34;;;5.90;83.15
65832;BME280;52593;42.648;23.332;2023-11-21T09:01:40;94297.38;;;5.90;82.03
65832;BME280;52593;42.648;23.332;2023-11-21T09:04:06;94287.50;;;6.00;81.90
65832;BME280;52593;42.648;23.332;2023-11-21T09:06:31;94276.38;;;6.13;82.85
65832;BME280;52593;42.648;23.332;2023-11-21T09:08:57;94277.91;;;6.16;83.02
65832;BME280;52593;42.648;23.332;2023-11-21T09:11:23;94266.81;;;6.45;81.10
65832;BME280;52593;42.648;23.332;2023-11-21T09:13:51;94253.53;;;6.62;79.99
65832;BME280;52593;42.648;23.332;2023-11-21T09:16:17;94250.84;;;6.70;78.63
65832;BME280;52593;42.648;23.332;2023-11-21T09:18:42;94252.00;;;6.51;78.82
65832;BME280;52593;42.648;23.332;2023-11-21T09:21:08;94247.69;;;6.58;79.06
65832;BME280;52593;42.648;23.332;2023-11-21T09:23:35;94257.31;;;6.67;79.48
65832;BME280;52593;42.648;23.332;2023-11-21T09:26:00;94238.72;;;6.75;79.12
65832;BME280;52593;42.648;23.332;2023-11-21T09:28:26;94226.75;;;6.71;80.37
65832;BME280;52593;42.648;23.332;2023-11-21T09:30:53;94214.13;;;6.73;79.40
65832;BME280;52593;42.648;23.332;2023-11-21T09:33:18;94212.59;;;6.87;79.13
65832;BME280;52593;42.648;23.332;2023-11-21T09:35:44;94203.09;;;7.01;78.29
65832;BME280;52593;42.648;23.332;2023-11-21T09:38:10;94200.69;;;7.31;76.64
65832;BME280;52593;42.648;23.332;2023-11-21T09:40:36;94199.66;;;7.40;75.55
65832;BME280;52593;42.648;23.332;2023-11-21T09:43:16;94190.09;;;7.54;75.00
65832;BME280;52593;42.648;23.332;2023-11-21T09:45:49;94190.91;;;7.55;75.06
65832;BME280;52593;42.648;23.332;2023-11-21T09:48:20;94187.88;;;7.66;73.61
65832;BME280;52593;42.648;23.332;2023-11-21T09:50:47;94182.16;;;7.77;74.21
65832;BME280;52593;42.648;23.332;2023-11-21T09:53:13;94156.75;;;7.98;72.56
65832;BME280;52593;42.648;23.332;2023-11-21T09:55:43;94146.47;;;8.10;71.38
65832;BME280;52593;42.648;23.332;2023-11-21T09:58:10;94152.28;;;8.13;72.21
65832;BME280;52593;42.648;23.332;2023-11-21T10:00:43;94150.16;;;8.09;73.27
65832;BME280;52593;42.648;23.332;2023-11-21T10:03:10;94140.00;;;8.50;70.99
65832;BME280;52593;42.648;23.332;2023-11-21T10:05:36;94143.06;;;8.62;69.96
65832;BME280;52593;42.648;23.332;2023-11-21T10:08:04;94144.13;;;8.53;69.39
65832;BME280;52593;42.648;23.332;2023-11-21T10:10:32;94135.22;;;8.46;69.75
65832;BME280;52593;42.648;23.332;2023-11-21T10:13:02;94136.13;;;8.53;69.35
65832;BME280;52593;42.648;23.332;2023-11-21T10:15:29;94130.19;;;8.66;69.22
65832;BME280;52593;42.648;23.332;2023-11-21T10:17:56;94128.75;;;8.78;68.21
65832;BME280;52593;42.648;23.332;2023-11-21T10:20:23;94125.53;;;8.83;68.50
65832;BME280;52593;42.648;23.332;2023-11-21T10:22:50;94122.56;;;8.92;68.67
65832;BME280;52593;42.648;23.332;2023-11-21T10:25:15;94116.88;;;8.81;69.28
65832;BME280;52593;42.648;23.332;2023-11-21T10:27:43;94114.94;;;8.74;68.56
65832;BME280;52593;42.648;23.332;2023-11-21T10:30:11;94113.00;;;8.83;69.32
65832;BME280;52593;42.648;23.332;2023-11-21T10:32:40;94116.22;;;8.93;68.65
65832;BME280;52593;42.648;23.332;2023-11-21T10:35:07;94106.13;;;9.04;68.58
65832;BME280;52593;42.648;23.332;2023-11-21T10:37:36;94104.69;;;9.23;67.12
65832;BME280;52593;42.648;23.332;2023-11-21T10:40:06;94103.16;;;9.14;68.71
65832;BME280;52593;42.648;23.332;2023-11-21T10:42:32;94090.91;;;9.19;67.15
65832;BME280;52593;42.648;23.332;2023-11-21T10:44:58;94091.16;;;9.24;65.66
65832;BME280;52593;42.648;23.332;2023-11-21T10:47:23;94094.78;;;9.02;65.64
65832;BME280;52593;42.648;23.332;2023-11-21T10:49:49;94097.63;;;9.00;66.23
65832;BME280;52593;42.648;23.332;2023-11-21T10:52:15;94097.75;;;8.92;65.84
65832;BME280;52593;42.648;23.332;2023-11-21T10:54:43;94095.63;;;9.02;66.18
65832;BME280;52593;42.648;23.332;2023-11-21T10:57:10;94083.09;;;9.03;65.85
65832;BME280;52593;42.648;23.332;2023-11-21T10:59:36;94089.72;;;9.07;65.70
65832;BME280;52593;42.648;23.332;2023-11-21T11:02:18;94091.09;;;8.88;67.73
65832;BME280;52593;42.648;23.332;2023-11-21T11:04:48;94087.63;;;9.02;67.16
65832;BME280;52593;42.648;23.332;2023-11-21T11:07:14;94077.75;;;9.18;66.72
65832;BME280;52593;42.648;23.332;2023-11-21T11:09:41;94081.34;;;9.10;66.76
65832;BME280;52593;42.648;23.332;2023-11-21T11:12:08;94075.47;;;9.15;66.71
65832;BME280;52593;42.648;23.332;2023-11-21T11:14:35;94074.09;;;9.04;66.82
65832;BME280;52593;42.648;23.332;2023-11-21T11:17:01;94068.75;;;9.04;68.48
65832;BME280;52593;42.648;23.332;2023-11-21T11:19:29;94053.78;;;9.24;66.72
65832;BME280;52593;42.648;23.332;2023-11-21T11:27:06;94031.31;;;9.34;66.40
65832;BME280;52593;42.648;23.332;2023-11-21T11:29:54;94037.22;;;9.29;65.99
65832;BME280;52593;42.648;23.332;2023-11-21T11:37:55;94037.03;;;9.52;65.73
65832;BME280;52593;42.648;23.332;2023-11-21T11:40:22;94013.47;;;9.56;63.53
65832;BME280;52593;42.648;23.332;2023-11-21T11:42:57;94019.06;;;9.39;65.10
65832;BME280;52593;42.648;23.332;2023-11-21T11:45:32;94025.59;;;9.37;65.03
65832;BME280;52593;42.648;23.332;2023-11-21T11:47:59;94033.78;;;9.35;66.26
65832;BME280;52593;42.648;23.332;2023-11-21T11:50:25;94047.16;;;9.20;67.77
65832;BME280;52593;42.648;23.332;2023-11-21T11:53:12;94050.31;;;9.09;69.13
65832;BME280;52593;42.648;23.332;2023-11-21T11:55:38;94040.50;;;8.95;68.54
65832;BME280;52593;42.648;23.332;2023-11-21T11:58:05;94045.00;;;8.94;70.38
65832;BME280;52593;42.648;23.332;2023-11-21T12:00:35;94035.44;;;9.00;71.23
65832;BME280;52593;42.648;23.332;2023-11-21T12:03:03;94028.44;;;8.99;72.88
65832;BME280;52593;42.648;23.332;2023-11-21T12:05:33;94024.31;;;8.96;73.69
65832;BME280;52593;42.648;23.332;2023-11-21T12:08:03;94033.34;;;8.80;71.66
65832;BME280;52593;42.648;23.332;2023-11-21T12:10:33;94031.88;;;8.63;72.54
65832;BME280;52593;42.648;23.332;2023-11-21T12:13:09;94046.69;;;8.50;73.28
65832;BME280;52593;42.648;23.332;2023-11-21T12:15:37;94052.03;;;8.50;73.47
65832;BME280;52593;42.648;23.332;2023-11-21T12:18:04;94055.28;;;8.37;73.45
65832;BME280;52593;42.648;23.332;2023-11-21T12:20:30;94041.41;;;8.27;75.95
65832;BME280;52593;42.648;23.332;2023-11-21T12:22:59;94045.50;;;8.30;77.05
65832;BME280;52593;42.648;23.332;2023-11-21T12:25:28;94039.72;;;8.26;79.51
65832;BME280;52593;42.648;23.332;2023-11-21T12:27:55;94037.69;;;8.13;77.75
65832;BME280;52593;42.648;23.332;2023-11-21T12:30:22;94032.25;;;8.07;78.68
65832;BME280;52593;42.648;23.332;2023-11-21T12:32:49;94038.59;;;8.06;77.03
65832;BME280;52593;42.648;23.332;2023-11-21T12:35:17;94040.09;;;7.85;76.91
65832;BME280;52593;42.648;23.332;2023-11-21T12:37:45;94047.91;;;7.86;77.95
65832;BME280;52593;42.648;23.332;2023-11-21T12:40:11;94051.75;;;7.84;78.64
65832;BME280;52593;42.648;23.332;2023-11-21T12:42:41;94040.09;;;7.85;79.54
65832;BME280;52593;42.648;23.332;2023-11-21T12:47:36;94030.56;;;7.91;78.76
65832;BME280;52593;42.648;23.332;2023-11-21T12:50:02;94029.22;;;7.95;79.85
65832;BME280;52593;42.648;23.332;2023-11-21T12:52:28;94013.72;;;8.13;77.27
65832;BME280;52593;42.648;23.332;2023-11-21T12:54:54;94012.06;;;8.12;78.77
65832;BME280;52593;42.648;23.332;2023-11-21T12:57:25;94010.75;;;8.08;80.14
65832;BME280;52593;42.648;23.332;2023-11-21T12:59:57;94005.78;;;8.05;81.51
65832;BME280;52593;42.648;23.332;2023-11-21T13:02:26;94005.53;;;8.30;78.13
65832;BME280;52593;42.648;23.332;2023-11-21T13:04:52;94005.06;;;8.11;79.75
65832;BME280;52593;42.648;23.332;2023-11-21T13:07:18;93996.44;;;8.09;78.79
65832;BME280;52593;42.648;23.332;2023-11-21T13:09:45;93997.72;;;8.28;78.02
65832;BME280;52593;42.648;23.332;2023-11-21T13:12:11;93994.31;;;8.34;78.56